createdAt,value
2019-05-26T00:00:10.526Z,12.19
2019-05-26T00:02:37.783Z,11.66
2019-05-26T00:05:06.411Z,11.89
2019-05-26T00:07:33.356Z,11.98
2019-05-26T00:09:59.905Z,11.90
2019-05-26T00:12:26.588Z,11.40
2019-05-26T00:14:53.286Z,10.99
2019-05-26T00:17:19.933Z,11.16
2019-05-26T00:19:46.585Z,11.71
2019-05-26T00:22:13.347Z,11.25
2019-05-26T00:24:39.952Z,11.05
2019-05-26T00:27:07.933Z,11.31
2019-05-26T00:29:34.618Z,11.17
2019-05-26T00:32:01.354Z,10.86
2019-05-26T00:34:27.998Z,10.61
2019-05-26T00:36:54.768Z,10.46
2019-05-26T00:39:22.089Z,10.50
2019-05-26T00:41:48.806Z,10.53
2019-05-26T00:44:15.497Z,10.71
2019-05-26T00:46:42.291Z,10.55
2019-05-26T00:49:09.160Z,10.33
2019-05-26T00:51:36.029Z,10.57
2019-05-26T00:54:03.806Z,10.54
2019-05-26T00:56:30.630Z,10.66
2019-05-26T00:58:58.495Z,10.05
2019-05-26T01:01:25.152Z,10.18
2019-05-26T01:03:51.798Z,10.36
2019-05-26T01:06:18.397Z,10.73
2019-05-26T01:08:45.082Z,10.71
2019-05-26T01:11:12.042Z,10.44
2019-05-26T01:13:38.978Z,10.83
2019-05-26T01:16:05.710Z,10.93
2019-05-26T01:18:32.306Z,10.58
2019-05-26T01:20:59.022Z,10.52
2019-05-26T01:23:25.743Z,10.83
2019-05-26T01:25:52.336Z,10.86
2019-05-26T01:28:18.989Z,10.78
2019-05-26T01:30:45.927Z,10.39
2019-05-26T01:33:12.778Z,10.64
2019-05-26T01:35:39.943Z,10.73
2019-05-26T01:38:22.701Z,10.53
2019-05-26T01:40:40.660Z,10.04
2019-05-26T01:43:08.368Z,9.84
2019-05-26T01:45:35.213Z,9.91
2019-05-26T01:48:02.420Z,10.12
2019-05-26T01:50:29.180Z,10.36
2019-05-26T01:52:57.720Z,9.85
2019-05-26T01:55:24.415Z,9.46
2019-05-26T01:57:51.213Z,9.40
2019-05-26T02:00:18.787Z,9.59
2019-05-26T02:02:45.513Z,9.49
2019-05-26T02:05:12.667Z,9.29
2019-05-26T02:07:39.336Z,9.76
2019-05-26T02:10:07.016Z,10.06
2019-05-26T02:12:33.747Z,10.18
2019-05-26T02:15:00.465Z,10.27
2019-05-26T02:17:27.061Z,9.73
2019-05-26T02:19:53.747Z,9.70
2019-05-26T02:22:20.422Z,9.75
2019-05-26T02:24:46.964Z,10.17
2019-05-26T02:27:13.766Z,10.15
2019-05-26T02:29:40.424Z,10.27
2019-05-26T02:32:07.160Z,9.81
2019-05-26T02:34:33.754Z,9.95
2019-05-26T02:37:00.528Z,9.66
2019-05-26T02:39:30.148Z,9.27
2019-05-26T02:41:56.850Z,9.76
2019-05-26T02:44:23.455Z,10.15
2019-05-26T02:46:50.019Z,10.00
2019-05-26T02:49:17.311Z,10.24
2019-05-26T02:51:44.015Z,10.15
2019-05-26T02:54:10.798Z,9.78
2019-05-26T02:56:38.472Z,10.16
2019-05-26T02:59:08.408Z,9.82
2019-05-26T03:01:36.008Z,9.81
2019-05-26T03:04:05.986Z,10.09
2019-05-26T03:06:33.704Z,10.06
2019-05-26T03:09:21.112Z,9.83
2019-05-26T03:11:34.419Z,9.87
2019-05-26T03:14:02.345Z,10.13
2019-05-26T03:16:32.057Z,10.09
2019-05-26T03:19:03.159Z,10.30
2019-05-26T03:21:32.943Z,10.28
2019-05-26T03:24:03.374Z,9.98
2019-05-26T03:26:30.045Z,10.15
2019-05-26T03:28:56.586Z,10.60
2019-05-26T03:31:23.369Z,10.58
2019-05-26T03:33:49.942Z,10.36
2019-05-26T03:36:16.628Z,10.03
2019-05-26T03:38:43.727Z,9.98
2019-05-26T03:41:10.371Z,10.07
2019-05-26T03:43:39.924Z,10.23
2019-05-26T03:46:08.537Z,10.14
2019-05-26T03:48:35.290Z,10.21
2019-05-26T03:51:01.904Z,10.60
2019-05-26T03:53:28.647Z,10.58
2019-05-26T03:55:55.296Z,10.59
2019-05-26T03:58:21.952Z,10.31
2019-05-26T04:00:48.744Z,10.50
2019-05-26T04:03:15.392Z,10.66
2019-05-26T04:05:42.143Z,10.76
2019-05-26T04:08:08.763Z,10.76
2019-05-26T04:10:35.436Z,10.56
2019-05-26T04:13:02.419Z,10.60
2019-05-26T04:15:29.590Z,10.86
2019-05-26T04:17:56.398Z,10.98
2019-05-26T04:20:23.172Z,11.05
2019-05-26T04:22:49.751Z,11.13
2019-05-26T04:25:16.511Z,11.15
2019-05-26T04:27:43.283Z,11.34
2019-05-26T04:30:10.621Z,11.51
2019-05-26T04:32:37.377Z,11.40
2019-05-26T04:35:05.974Z,11.44
2019-05-26T04:37:32.648Z,11.35
2019-05-26T04:39:59.212Z,11.70
2019-05-26T04:42:26.096Z,11.89
2019-05-26T04:44:54.597Z,12.02
2019-05-26T04:47:21.229Z,12.22
2019-05-26T04:49:47.948Z,12.59
2019-05-26T04:52:17.122Z,12.84
2019-05-26T04:54:43.892Z,12.95
2019-05-26T04:57:10.665Z,13.22
2019-05-26T04:59:37.747Z,13.34
2019-05-26T05:02:04.684Z,13.43
2019-05-26T05:04:32.363Z,13.80
2019-05-26T05:06:58.990Z,14.02
2019-05-26T05:09:28.626Z,14.21
2019-05-26T05:11:55.384Z,14.21
2019-05-26T05:14:22.169Z,14.45
2019-05-26T05:16:48.786Z,14.58
2019-05-26T05:19:15.525Z,14.72
2019-05-26T05:21:42.177Z,14.83
2019-05-26T05:24:08.824Z,15.13
2019-05-26T05:26:38.268Z,15.16
2019-05-26T05:29:06.086Z,15.23
2019-05-26T05:31:32.760Z,15.06
2019-05-26T05:33:59.383Z,15.20
2019-05-26T05:36:29.240Z,15.39
2019-05-26T05:38:56.014Z,15.42
2019-05-26T05:41:22.592Z,15.43
2019-05-26T05:43:49.364Z,15.84
2019-05-26T05:46:16.045Z,16.38
2019-05-26T05:48:42.727Z,16.47
2019-05-26T05:51:09.384Z,16.05
2019-05-26T05:53:36.067Z,16.27
2019-05-26T05:56:03.422Z,16.35
2019-05-26T05:58:30.119Z,16.19
2019-05-26T06:00:56.846Z,16.12
2019-05-26T06:03:23.411Z,16.40
2019-05-26T06:05:50.104Z,16.45
2019-05-26T06:08:16.792Z,16.43
2019-05-26T06:10:43.383Z,16.59
2019-05-26T06:13:09.931Z,16.65
2019-05-26T06:15:37.994Z,16.56
2019-05-26T06:18:04.854Z,16.69
2019-05-26T06:20:31.662Z,16.65
2019-05-26T06:22:58.358Z,16.67
2019-05-26T06:25:25.038Z,16.80
2019-05-26T06:27:51.779Z,16.72
2019-05-26T06:30:19.335Z,16.86
2019-05-26T06:32:46.100Z,16.69
2019-05-26T06:35:13.705Z,16.62
2019-05-26T06:37:40.329Z,16.88
2019-05-26T06:40:08.877Z,16.70
2019-05-26T06:42:35.793Z,17.28
2019-05-26T06:45:05.082Z,17.28
2019-05-26T06:47:31.758Z,17.45
2019-05-26T06:49:58.475Z,17.50
2019-05-26T06:52:25.065Z,17.06
2019-05-26T06:54:51.721Z,16.71
2019-05-26T06:57:18.347Z,16.64
2019-05-26T06:59:45.137Z,16.64
2019-05-26T07:02:11.780Z,16.67
2019-05-26T07:04:39.964Z,16.81
2019-05-26T07:07:06.789Z,17.33
2019-05-26T07:09:33.355Z,17.19
2019-05-26T07:12:00.761Z,17.42
2019-05-26T07:14:28.061Z,17.60
2019-05-26T07:16:58.211Z,17.29
2019-05-26T07:19:24.823Z,17.02
2019-05-26T07:21:51.730Z,17.14
2019-05-26T07:24:18.409Z,17.67
2019-05-26T07:26:45.000Z,17.46
2019-05-26T07:29:11.705Z,17.87
2019-05-26T07:31:38.395Z,17.58
2019-05-26T07:34:05.557Z,17.84
2019-05-26T07:36:32.286Z,17.86
2019-05-26T07:39:01.658Z,17.54
2019-05-26T07:41:30.311Z,17.75
2019-05-26T07:43:57.323Z,17.63
2019-05-26T07:46:24.598Z,17.71
2019-05-26T07:48:51.361Z,17.87
2019-05-26T07:51:17.943Z,18.02
2019-05-26T07:53:44.637Z,18.16
2019-05-26T07:56:11.256Z,17.97
2019-05-26T07:58:37.896Z,17.68
2019-05-26T08:01:04.552Z,18.10
2019-05-26T08:03:31.147Z,18.19
2019-05-26T08:05:57.730Z,18.38
2019-05-26T08:08:24.509Z,18.42
2019-05-26T08:10:51.354Z,18.32
2019-05-26T08:13:17.897Z,18.44
2019-05-26T08:15:44.501Z,18.50
2019-05-26T08:18:11.325Z,18.57
2019-05-26T08:20:40.178Z,18.91
2019-05-26T08:23:06.909Z,18.81
2019-05-26T08:25:33.595Z,19.05
2019-05-26T08:28:00.347Z,18.65
2019-05-26T08:30:26.984Z,18.59
2019-05-26T08:32:53.590Z,18.47
2019-05-26T08:35:20.288Z,18.28
2019-05-26T08:37:46.988Z,18.45
2019-05-26T08:40:15.790Z,18.59
2019-05-26T08:42:44.705Z,19.14
2019-05-26T08:45:11.315Z,19.10
2019-05-26T08:47:37.933Z,18.67
2019-05-26T08:50:05.952Z,18.76
2019-05-26T08:52:32.763Z,19.06
2019-05-26T08:55:00.677Z,19.60
2019-05-26T08:57:27.279Z,19.47
2019-05-26T08:59:55.033Z,19.19
2019-05-26T09:02:21.629Z,19.24
2019-05-26T09:04:48.281Z,19.41
2019-05-26T09:07:14.954Z,19.61
2019-05-26T09:09:46.768Z,19.24
2019-05-26T09:12:13.743Z,19.24
2019-05-26T09:14:40.435Z,19.23
2019-05-26T09:17:07.373Z,19.51
2019-05-26T09:19:34.007Z,19.60
2019-05-26T09:22:00.616Z,20.05
2019-05-26T09:24:27.260Z,19.61
2019-05-26T09:26:53.931Z,19.40
2019-05-26T09:29:20.609Z,19.47
2019-05-26T09:31:47.204Z,20.25
2019-05-26T09:34:14.031Z,20.33
2019-05-26T09:36:40.733Z,20.43
2019-05-26T09:39:07.743Z,20.74
2019-05-26T09:41:34.347Z,19.93
2019-05-26T09:44:01.154Z,18.93
2019-05-26T09:46:28.569Z,18.97
2019-05-26T09:48:55.397Z,19.48
2019-05-26T09:51:22.072Z,19.80
2019-05-26T09:54:00.726Z,19.97
2019-05-26T09:56:17.212Z,20.44
2019-05-26T09:58:44.102Z,20.19
2019-05-26T10:01:10.842Z,20.18
2019-05-26T10:03:38.270Z,20.16
2019-05-26T10:07:02.263Z,19.76
2019-05-26T10:09:28.949Z,20.55
2019-05-26T10:11:56.328Z,20.54
2019-05-26T10:14:23.204Z,20.64
2019-05-26T10:16:49.867Z,20.53
2019-05-26T10:19:16.665Z,19.97
2019-05-26T10:21:43.319Z,19.87
2019-05-26T10:24:10.009Z,19.62
2019-05-26T10:26:39.685Z,20.22
2019-05-26T10:29:06.425Z,20.58
2019-05-26T10:31:33.175Z,20.58
2019-05-26T10:33:59.978Z,20.27
2019-05-26T10:36:27.912Z,20.59
2019-05-26T10:38:54.756Z,21.06
2019-05-26T10:41:21.342Z,20.66
2019-05-26T10:43:48.139Z,20.65
2019-05-26T10:46:21.557Z,20.88
2019-05-26T10:48:48.226Z,20.79
2019-05-26T10:51:14.978Z,20.49
2019-05-26T10:53:41.707Z,20.49
2019-05-26T10:56:08.271Z,20.86
2019-05-26T10:58:35.029Z,21.04
2019-05-26T11:01:02.311Z,21.33
2019-05-26T11:03:29.273Z,21.52
2019-05-26T11:05:55.983Z,21.27
2019-05-26T11:08:22.533Z,21.24
2019-05-26T11:10:49.075Z,21.20
2019-05-26T11:13:15.846Z,21.24
2019-05-26T11:15:44.470Z,21.79
2019-05-26T11:18:11.191Z,21.20
2019-05-26T11:20:37.851Z,21.64
2019-05-26T11:23:05.792Z,21.69
2019-05-26T11:25:32.461Z,21.54
2019-05-26T11:27:59.108Z,21.92
2019-05-26T11:30:27.674Z,21.51
2019-05-26T11:32:54.524Z,21.87
2019-05-26T11:35:21.839Z,22.18
2019-05-26T11:37:48.649Z,21.73
2019-05-26T11:40:16.199Z,22.43
2019-05-26T11:42:44.953Z,22.68
2019-05-26T11:45:13.034Z,22.20
2019-05-26T11:47:39.615Z,21.57
2019-05-26T11:50:08.563Z,21.79
2019-05-26T11:52:35.136Z,21.99
2019-05-26T11:55:05.054Z,22.42
2019-05-26T11:57:31.903Z,22.31
2019-05-26T11:59:58.646Z,22.59
2019-05-26T12:02:25.344Z,21.99
2019-05-26T12:04:52.311Z,21.97
2019-05-26T12:07:18.873Z,22.30
2019-05-26T12:09:45.504Z,22.37
2019-05-26T12:12:12.112Z,22.31
2019-05-26T12:14:38.783Z,21.89
2019-05-26T12:17:05.502Z,21.90
2019-05-26T12:19:32.191Z,22.29
2019-05-26T12:21:58.919Z,22.22
2019-05-26T12:24:25.616Z,21.80
2019-05-26T12:26:52.198Z,22.17
2019-05-26T12:29:18.777Z,22.14
2019-05-26T12:31:45.386Z,21.96
2019-05-26T12:34:11.973Z,21.76
2019-05-26T12:36:39.529Z,22.20
2019-05-26T12:39:08.021Z,22.31
2019-05-26T12:41:37.155Z,22.06
2019-05-26T12:44:04.464Z,22.14
2019-05-26T12:46:31.501Z,22.29
2019-05-26T12:48:58.118Z,22.57
2019-05-26T12:51:24.711Z,22.50
2019-05-26T12:53:51.324Z,22.53
2019-05-26T12:56:18.125Z,22.39
2019-05-26T12:58:44.689Z,21.75
2019-05-26T13:01:11.430Z,21.72
2019-05-26T13:03:38.111Z,21.81
2019-05-26T13:06:05.680Z,21.86
2019-05-26T13:08:32.376Z,22.18
2019-05-26T13:10:58.994Z,22.10
2019-05-26T13:13:25.670Z,22.03
2019-05-26T13:15:52.255Z,22.32
2019-05-26T13:18:18.846Z,22.51
2019-05-26T13:20:45.659Z,22.28
2019-05-26T13:23:12.634Z,22.18
2019-05-26T13:25:39.204Z,22.58
2019-05-26T13:28:06.165Z,22.91
2019-05-26T13:30:33.249Z,23.18
2019-05-26T13:32:59.974Z,23.15
2019-05-26T13:35:26.687Z,22.75
2019-05-26T13:37:54.042Z,22.63
2019-05-26T13:40:22.141Z,23.18
2019-05-26T13:42:48.933Z,23.05
2019-05-26T13:45:22.954Z,23.31
2019-05-26T13:47:46.348Z,23.01
2019-05-26T13:50:14.898Z,23.16
2019-05-26T13:52:41.613Z,23.03
2019-05-26T13:55:10.544Z,22.93
2019-05-26T13:57:37.484Z,22.87
2019-05-26T14:00:08.016Z,23.25
2019-05-26T14:02:35.174Z,23.54
2019-05-26T14:05:05.366Z,23.53
2019-05-26T14:07:32.106Z,23.13
2019-05-26T14:09:59.261Z,23.28
2019-05-26T14:12:26.829Z,22.97
2019-05-26T14:14:54.528Z,23.22
2019-05-26T14:17:23.772Z,23.30
2019-05-26T14:19:51.192Z,23.05
2019-05-26T14:22:18.030Z,23.17
2019-05-26T14:24:53.369Z,23.51
2019-05-26T14:27:13.994Z,23.52
2019-05-26T14:29:40.948Z,23.21
2019-05-26T14:32:07.849Z,23.88
2019-05-26T14:34:34.492Z,23.76
2019-05-26T14:37:01.249Z,24.10
2019-05-26T14:39:27.928Z,23.81
2019-05-26T14:41:54.629Z,23.54
2019-05-26T14:44:21.218Z,23.15
2019-05-26T14:46:48.286Z,23.55
2019-05-26T14:49:15.016Z,23.41
2019-05-26T14:51:41.621Z,23.65
2019-05-26T14:54:08.275Z,23.65
2019-05-26T14:56:34.967Z,23.63
2019-05-26T14:59:01.516Z,23.25
2019-05-26T15:01:28.180Z,23.22
2019-05-26T15:03:55.040Z,23.12
2019-05-26T15:06:21.974Z,23.14
2019-05-26T15:08:48.882Z,23.25
2019-05-26T15:11:15.578Z,23.39
2019-05-26T15:13:42.401Z,23.49
2019-05-26T15:16:10.612Z,23.86
2019-05-26T15:18:37.735Z,23.84
2019-05-26T15:21:04.778Z,23.67
2019-05-26T15:23:31.506Z,23.55
2019-05-26T15:25:58.195Z,23.29
2019-05-26T15:28:24.919Z,23.65
2019-05-26T15:30:51.624Z,23.63
2019-05-26T15:33:18.303Z,23.51
2019-05-26T15:35:46.083Z,23.84
2019-05-26T15:38:12.904Z,23.99
2019-05-26T15:40:39.602Z,23.84
2019-05-26T15:43:07.319Z,23.24
2019-05-26T15:45:34.173Z,22.92
2019-05-26T15:48:00.903Z,23.22
2019-05-26T15:50:27.715Z,23.23
2019-05-26T15:52:54.578Z,23.63
2019-05-26T15:55:21.539Z,23.64
2019-05-26T15:57:48.156Z,23.29
2019-05-26T16:00:15.171Z,22.98
2019-05-26T16:02:42.691Z,22.42
2019-05-26T16:05:09.734Z,22.64
2019-05-26T16:07:36.579Z,22.66
2019-05-26T16:10:06.554Z,22.99
2019-05-26T16:12:33.639Z,22.91
2019-05-26T16:15:00.733Z,23.05
2019-05-26T16:17:29.148Z,23.16
2019-05-26T16:19:56.944Z,23.03
2019-05-26T16:22:23.639Z,23.28
2019-05-26T16:24:50.233Z,23.44
2019-05-26T16:27:19.403Z,23.14
2019-05-26T16:29:46.729Z,23.17
2019-05-26T16:32:13.898Z,22.95
2019-05-26T16:34:40.690Z,22.88
2019-05-26T16:37:07.553Z,22.66
2019-05-26T16:39:37.073Z,23.05
2019-05-26T16:42:04.111Z,23.01
2019-05-26T16:44:33.365Z,23.20
2019-05-26T16:47:00.584Z,22.93
2019-05-26T16:49:27.323Z,22.51
2019-05-26T16:51:54.332Z,22.72
2019-05-26T16:54:23.986Z,22.57
2019-05-26T16:56:50.628Z,22.98
2019-05-26T16:59:17.388Z,22.87
2019-05-26T17:01:44.091Z,22.90
2019-05-26T17:04:10.930Z,22.54
2019-05-26T17:06:37.986Z,22.30
2019-05-26T17:09:07.072Z,22.17
2019-05-26T17:11:33.903Z,22.36
2019-05-26T17:14:00.495Z,22.24
2019-05-26T17:16:27.355Z,22.17
2019-05-26T17:18:54.192Z,22.13
2019-05-26T17:21:21.115Z,22.14
2019-05-26T17:23:47.712Z,21.92
2019-05-26T17:26:14.624Z,21.84
2019-05-26T17:28:41.455Z,22.05
2019-05-26T17:31:08.016Z,21.91
2019-05-26T17:33:34.826Z,21.61
2019-05-26T17:36:01.431Z,21.58
2019-05-26T17:38:28.244Z,21.52
2019-05-26T17:40:55.848Z,21.47
2019-05-26T17:43:23.703Z,21.47
2019-05-26T17:45:50.348Z,21.23
2019-05-26T17:48:18.463Z,21.26
2019-05-26T17:50:45.089Z,21.28
2019-05-26T17:53:15.183Z,21.02
2019-05-26T17:55:42.299Z,20.95
2019-05-26T17:58:09.105Z,20.76
2019-05-26T18:00:35.770Z,20.69
2019-05-26T18:03:03.210Z,20.67
2019-05-26T18:05:30.267Z,20.34
2019-05-26T18:07:57.098Z,20.15
2019-05-26T18:10:23.962Z,19.85
2019-05-26T18:12:50.810Z,19.70
2019-05-26T18:15:18.084Z,19.26
2019-05-26T18:17:47.474Z,19.07
2019-05-26T18:20:13.543Z,18.95
2019-05-26T18:22:40.337Z,18.87
2019-05-26T18:25:09.768Z,18.60
2019-05-26T18:27:36.364Z,18.97
2019-05-26T18:30:06.246Z,18.66
2019-05-26T18:32:32.999Z,18.49
2019-05-26T18:35:00.133Z,18.20
2019-05-26T18:37:26.935Z,18.02
2019-05-26T18:39:53.947Z,18.21
2019-05-26T18:42:21.495Z,17.98
2019-05-26T18:44:48.424Z,17.90
2019-05-26T18:47:15.376Z,18.08
2019-05-26T18:49:44.140Z,17.65
2019-05-26T18:52:10.864Z,17.86
2019-05-26T18:54:37.767Z,17.58
2019-05-26T18:57:04.887Z,17.34
2019-05-26T18:59:36.140Z,17.19
2019-05-26T19:02:09.143Z,17.05
2019-05-26T19:04:36.043Z,17.02
2019-05-26T19:07:03.422Z,16.76
2019-05-26T19:09:30.374Z,16.91
2019-05-26T19:11:57.279Z,16.66
2019-05-26T19:14:24.354Z,16.64
2019-05-26T19:16:51.045Z,16.59
2019-05-26T19:19:17.815Z,16.39
2019-05-26T19:21:44.891Z,16.30
2019-05-26T19:24:11.422Z,16.02
2019-05-26T19:26:38.250Z,16.09
2019-05-26T19:29:05.160Z,15.96
2019-05-26T19:31:33.157Z,15.91
2019-05-26T19:33:59.971Z,15.80
2019-05-26T19:36:26.756Z,15.77
2019-05-26T19:38:53.697Z,15.70
2019-05-26T19:41:20.487Z,15.67
2019-05-26T19:43:47.502Z,15.69
2019-05-26T19:46:14.588Z,15.68
2019-05-26T19:48:41.526Z,15.49
2019-05-26T19:51:11.266Z,15.50
2019-05-26T19:53:41.133Z,15.43
2019-05-26T19:56:07.875Z,15.45
2019-05-26T19:58:34.745Z,15.42
2019-05-26T20:01:01.653Z,15.24
2019-05-26T20:03:30.755Z,15.26
2019-05-26T20:05:57.449Z,15.23
2019-05-26T20:08:24.146Z,15.53
2019-05-26T20:10:51.274Z,15.51
2019-05-26T20:13:18.139Z,15.56
2019-05-26T20:15:45.067Z,15.59
2019-05-26T20:18:13.727Z,15.58
2019-05-26T20:20:40.399Z,15.21
2019-05-26T20:23:07.305Z,15.04
2019-05-26T20:25:34.094Z,14.99
2019-05-26T20:28:00.734Z,15.03
2019-05-26T20:30:27.416Z,15.03
2019-05-26T20:32:54.166Z,14.86
2019-05-26T20:35:22.075Z,14.69
2019-05-26T20:37:49.091Z,14.57
2019-05-26T20:40:16.763Z,14.49
2019-05-26T20:42:43.597Z,14.39
2019-05-26T20:45:10.760Z,14.37
2019-05-26T20:47:37.804Z,14.52
2019-05-26T20:50:07.417Z,14.83
2019-05-26T20:52:34.337Z,14.47
2019-05-26T20:55:01.173Z,14.36
2019-05-26T20:57:28.183Z,14.29
2019-05-26T20:59:55.963Z,14.28
2019-05-26T21:02:22.575Z,14.38
2019-05-26T21:04:49.271Z,14.46
2019-05-26T21:07:15.876Z,14.35
2019-05-26T21:09:43.539Z,14.37
2019-05-26T21:12:10.473Z,14.41
2019-05-26T21:14:37.318Z,14.31
2019-05-26T21:17:05.319Z,14.37
2019-05-26T21:19:32.138Z,14.35
2019-05-26T21:21:59.053Z,14.45
2019-05-26T21:24:25.826Z,14.38
2019-05-26T21:26:52.541Z,14.34
2019-05-26T21:29:19.338Z,14.23
2019-05-26T21:31:46.352Z,14.26
2019-05-26T21:34:13.636Z,14.25
2019-05-26T21:36:41.148Z,14.36
2019-05-26T21:39:08.055Z,14.27
2019-05-26T21:41:34.611Z,14.21
2019-05-26T21:44:02.454Z,14.20
2019-05-26T21:46:29.344Z,14.33
2019-05-26T21:48:58.031Z,14.16
2019-05-26T21:51:24.766Z,14.23
2019-05-26T21:53:51.582Z,14.30
2019-05-26T21:56:18.447Z,14.41
2019-05-26T21:58:45.152Z,14.24
2019-05-26T22:01:11.842Z,14.05
2019-05-26T22:03:38.584Z,14.09
2019-05-26T22:06:05.532Z,13.94
2019-05-26T22:08:32.255Z,14.07
2019-05-26T22:10:59.039Z,14.10
2019-05-26T22:13:26.117Z,14.25
2019-05-26T22:15:52.820Z,14.25
2019-05-26T22:18:19.654Z,14.03
2019-05-26T22:20:46.535Z,14.09
2019-05-26T22:23:13.155Z,13.92
2019-05-26T22:25:39.992Z,13.86
2019-05-26T22:28:06.752Z,13.90
2019-05-26T22:30:33.577Z,13.90
2019-05-26T22:33:00.530Z,13.80
2019-05-26T22:35:27.510Z,13.98
2019-05-26T22:37:54.226Z,13.81
2019-05-26T22:40:21.188Z,13.91
2019-05-26T22:42:48.846Z,14.03
2019-05-26T22:45:15.950Z,14.09
2019-05-26T22:47:42.772Z,13.73
2019-05-26T22:50:10.129Z,13.91
2019-05-26T22:52:37.269Z,13.83
2019-05-26T22:55:06.270Z,13.82
2019-05-26T22:57:32.865Z,13.92
2019-05-26T22:59:59.537Z,13.89
2019-05-26T23:02:26.472Z,13.95
2019-05-26T23:04:53.368Z,13.85
2019-05-26T23:07:20.013Z,13.88
2019-05-26T23:09:46.696Z,14.02
2019-05-26T23:12:13.606Z,13.74
2019-05-26T23:14:40.270Z,13.93
2019-05-26T23:17:07.129Z,13.76
2019-05-26T23:19:33.793Z,13.90
2019-05-26T23:22:00.896Z,13.96
2019-05-26T23:24:27.745Z,14.02
2019-05-26T23:26:54.539Z,14.11
2019-05-26T23:29:21.123Z,13.98
2019-05-26T23:31:47.795Z,14.15
2019-05-26T23:34:14.631Z,14.25
2019-05-26T23:36:41.233Z,13.98
2019-05-26T23:39:08.046Z,13.88
2019-05-26T23:41:34.740Z,14.03
2019-05-26T23:44:01.382Z,13.90
2019-05-26T23:46:29.094Z,13.80
2019-05-26T23:48:55.762Z,13.82
2019-05-26T23:51:22.564Z,14.06
2019-05-26T23:53:49.246Z,13.92
2019-05-26T23:56:15.831Z,13.91
2019-05-26T23:58:42.426Z,13.79
